NOZ184 ENGM-ENHD
Flight info
| Callsign | NOZ184 |
|---|---|
| Flight time | 0h 42m |
| Altitude | 28000 |
| Route | ATLAP7D ATLAP DCT IPMOD DCT ULVOS ULVOS1V |
| Aircraft | B38M/M-SDE1FGHILORVWXY/HB1 |
Departure
| Time | 2026-05-06 16:48 |
|---|---|
| Airport | Oslo-Gardermoen International Airport (ENGM) |
Arrival
| Time | 2026-05-06 17:30 |
|---|---|
| Airport | Haugesund Airport, Karmøy (ENHD) |
| Time | Latitude | Longitude | Altitude | Speed | Heading |
|---|---|---|---|---|---|
| 2026-05-06 16:35 | 60.19586 | 11.09602 | 683 ft | 0 kts | 196° |
| 2026-05-06 16:41 | 60.19585 | 11.09602 | 687 ft | 1 kts | 195° |
| 2026-05-06 16:41 | 60.19582 | 11.09603 | 687 ft | 0 kts | 169° |
| 2026-05-06 16:41 | 60.19581 | 11.09608 | 682 ft | 0 kts | 136° |
| 2026-05-06 16:41 | 60.19582 | 11.09615 | 683 ft | 1 kts | 85° |
| 2026-05-06 16:42 | 60.19586 | 11.09619 | 683 ft | 1 kts | 24° |
| 2026-05-06 16:42 | 60.19631 | 11.09607 | 682 ft | 12 kts | 333° |
| 2026-05-06 16:42 | 60.19672 | 11.09463 | 682 ft | 15 kts | 286° |
| 2026-05-06 16:42 | 60.19704 | 11.09244 | 685 ft | 15 kts | 286° |
| 2026-05-06 16:43 | 60.19733 | 11.09040 | 685 ft | 16 kts | 286° |
| 2026-05-06 16:43 | 60.19766 | 11.08807 | 680 ft | 13 kts | 286° |
| 2026-05-06 16:43 | 60.19804 | 11.08701 | 681 ft | 9 kts | 346° |
| 2026-05-06 16:43 | 60.19867 | 11.08726 | 680 ft | 10 kts | 15° |
| 2026-05-06 16:44 | 60.19955 | 11.08776 | 682 ft | 17 kts | 16° |
| 2026-05-06 16:44 | 60.20101 | 11.08860 | 680 ft | 25 kts | 16° |
| 2026-05-06 16:44 | 60.20246 | 11.08944 | 684 ft | 20 kts | 16° |
| 2026-05-06 16:44 | 60.20385 | 11.09024 | 684 ft | 21 kts | 15° |
| 2026-05-06 16:45 | 60.20526 | 11.09106 | 685 ft | 18 kts | 16° |
| 2026-05-06 16:45 | 60.20611 | 11.09141 | 679 ft | 10 kts | 349° |
| 2026-05-06 16:45 | 60.20649 | 11.09036 | 679 ft | 11 kts | 287° |
| 2026-05-06 16:45 | 60.20674 | 11.08870 | 678 ft | 15 kts | 287° |
| 2026-05-06 16:46 | 60.20699 | 11.08692 | 682 ft | 9 kts | 271° |
| 2026-05-06 16:46 | 60.20662 | 11.08622 | 681 ft | 8 kts | 200° |
| 2026-05-06 16:46 | 60.20649 | 11.08614 | 681 ft | 0 kts | 196° |
| 2026-05-06 16:47 | 60.20518 | 11.08538 | 681 ft | 51 kts | 196° |
| 2026-05-06 16:47 | 60.19945 | 11.08207 | 678 ft | 118 kts | 196° |
| 2026-05-06 16:47 | 60.18975 | 11.07649 | 675 ft | 169 kts | 197° |
| 2026-05-06 16:47 | 60.17809 | 11.06983 | 1173 ft | 174 kts | 199° |
| 2026-05-06 16:48 | 60.16718 | 11.06057 | 1951 ft | 169 kts | 219° |
| 2026-05-06 16:48 | 60.16045 | 11.04145 | 2651 ft | 170 kts | 251° |
| 2026-05-06 16:48 | 60.15668 | 11.01796 | 3318 ft | 184 kts | 250° |
| 2026-05-06 16:48 | 60.15148 | 10.99413 | 4060 ft | 191 kts | 245° |
| 2026-05-06 16:49 | 60.14548 | 10.96885 | 4605 ft | 208 kts | 246° |
| 2026-05-06 16:49 | 60.14159 | 10.94032 | 5253 ft | 223 kts | 265° |
| 2026-05-06 16:49 | 60.14028 | 10.90792 | 5836 ft | 242 kts | 265° |
| 2026-05-06 16:49 | 60.13895 | 10.87287 | 6428 ft | 261 kts | 266° |
| 2026-05-06 16:50 | 60.13762 | 10.83632 | 7382 ft | 261 kts | 265° |
| 2026-05-06 16:50 | 60.13632 | 10.79960 | 8323 ft | 267 kts | 265° |
| 2026-05-06 16:50 | 60.13492 | 10.76211 | 9220 ft | 271 kts | 262° |
| 2026-05-06 16:50 | 60.13228 | 10.73778 | 9860 ft | 271 kts | 253° |
| 2026-05-06 16:51 | 60.12525 | 10.68772 | 10664 ft | 290 kts | 255° |
| 2026-05-06 16:51 | 60.11991 | 10.64735 | 11089 ft | 307 kts | 255° |
| 2026-05-06 16:51 | 60.11456 | 10.60593 | 11822 ft | 311 kts | 256° |
| 2026-05-06 16:51 | 60.10921 | 10.56396 | 12805 ft | 310 kts | 256° |
| 2026-05-06 16:52 | 60.10390 | 10.52209 | 13757 ft | 309 kts | 256° |
| 2026-05-06 16:52 | 60.09862 | 10.48041 | 14551 ft | 309 kts | 256° |
| 2026-05-06 16:52 | 60.09333 | 10.43861 | 15308 ft | 310 kts | 256° |
| 2026-05-06 16:52 | 60.08801 | 10.39662 | 16063 ft | 312 kts | 256° |
| 2026-05-06 16:53 | 60.08265 | 10.35442 | 16828 ft | 313 kts | 256° |
| 2026-05-06 16:53 | 60.07724 | 10.31198 | 17614 ft | 315 kts | 256° |
| 2026-05-06 16:53 | 60.07179 | 10.26936 | 18330 ft | 317 kts | 256° |
| 2026-05-06 16:53 | 60.06630 | 10.22657 | 18953 ft | 319 kts | 256° |
| 2026-05-06 16:54 | 60.06074 | 10.18328 | 19432 ft | 325 kts | 255° |
| 2026-05-06 16:54 | 60.05504 | 10.13908 | 19970 ft | 329 kts | 255° |
| 2026-05-06 16:54 | 60.04930 | 10.09469 | 20580 ft | 331 kts | 255° |
| 2026-05-06 16:54 | 60.04358 | 10.05058 | 21169 ft | 333 kts | 255° |
| 2026-05-06 16:55 | 60.03774 | 10.00568 | 21761 ft | 335 kts | 255° |
| 2026-05-06 16:55 | 60.03184 | 9.96044 | 22398 ft | 336 kts | 255° |
| 2026-05-06 16:55 | 60.02594 | 9.91530 | 23077 ft | 336 kts | 255° |
| 2026-05-06 16:55 | 60.01999 | 9.86995 | 23588 ft | 339 kts | 255° |
| 2026-05-06 16:56 | 60.01397 | 9.82427 | 24054 ft | 340 kts | 255° |
| 2026-05-06 16:56 | 60.00793 | 9.77844 | 24530 ft | 342 kts | 254° |
| 2026-05-06 16:56 | 60.00184 | 9.73247 | 24935 ft | 345 kts | 254° |
| 2026-05-06 16:56 | 59.99568 | 9.68606 | 25370 ft | 347 kts | 253° |
| 2026-05-06 16:57 | 59.98946 | 9.63937 | 25777 ft | 349 kts | 253° |
| 2026-05-06 16:57 | 59.98319 | 9.59245 | 26255 ft | 350 kts | 253° |
| 2026-05-06 16:57 | 59.97700 | 9.54627 | 26820 ft | 348 kts | 253° |
| 2026-05-06 16:57 | 59.97075 | 9.49980 | 27408 ft | 345 kts | 252° |
| 2026-05-06 16:58 | 59.96452 | 9.45358 | 27859 ft | 346 kts | 252° |
| 2026-05-06 16:58 | 59.95828 | 9.40732 | 27919 ft | 343 kts | 252° |
| 2026-05-06 16:58 | 59.95206 | 9.36145 | 27930 ft | 342 kts | 252° |
| 2026-05-06 16:58 | 59.94584 | 9.31569 | 27921 ft | 342 kts | 252° |
| 2026-05-06 16:59 | 59.93961 | 9.27006 | 27942 ft | 341 kts | 252° |
| 2026-05-06 16:59 | 59.93338 | 9.22449 | 27959 ft | 340 kts | 252° |
| 2026-05-06 16:59 | 59.92714 | 9.17895 | 27926 ft | 340 kts | 252° |
| 2026-05-06 16:59 | 59.92088 | 9.13351 | 27951 ft | 340 kts | 252° |
| 2026-05-06 17:00 | 59.91461 | 9.08807 | 27937 ft | 340 kts | 252° |
| 2026-05-06 17:00 | 59.90834 | 9.04271 | 27931 ft | 340 kts | 252° |
| 2026-05-06 17:00 | 59.90204 | 8.99734 | 27961 ft | 340 kts | 252° |
| 2026-05-06 17:00 | 59.89573 | 8.95200 | 27962 ft | 340 kts | 252° |
| 2026-05-06 17:01 | 59.89154 | 8.92196 | 27964 ft | 340 kts | 252° |
| 2026-05-06 17:01 | 59.88521 | 8.87664 | 27883 ft | 340 kts | 252° |
| 2026-05-06 17:01 | 59.87885 | 8.83133 | 27983 ft | 340 kts | 252° |
| 2026-05-06 17:01 | 59.87247 | 8.78596 | 27940 ft | 342 kts | 252° |
| 2026-05-06 17:02 | 59.86603 | 8.74029 | 27961 ft | 344 kts | 252° |
| 2026-05-06 17:02 | 59.85955 | 8.69445 | 27979 ft | 344 kts | 252° |
| 2026-05-06 17:02 | 59.85306 | 8.64863 | 27950 ft | 343 kts | 252° |
| 2026-05-06 17:02 | 59.84671 | 8.60399 | 28029 ft | 326 kts | 252° |
| 2026-05-06 17:03 | 59.84065 | 8.56147 | 28038 ft | 315 kts | 252° |
| 2026-05-06 17:03 | 59.82878 | 8.47865 | 27961 ft | 309 kts | 252° |
| 2026-05-06 17:03 | 59.82294 | 8.43800 | 27993 ft | 309 kts | 252° |
| 2026-05-06 17:04 | 59.81703 | 8.39698 | 27997 ft | 309 kts | 252° |
| 2026-05-06 17:04 | 59.81113 | 8.35611 | 27932 ft | 305 kts | 252° |
| 2026-05-06 17:04 | 59.80527 | 8.31561 | 27355 ft | 306 kts | 252° |
| 2026-05-06 17:04 | 59.79939 | 8.27509 | 26915 ft | 304 kts | 252° |
| 2026-05-06 17:05 | 59.79354 | 8.23482 | 26461 ft | 303 kts | 252° |
| 2026-05-06 17:05 | 59.78770 | 8.19483 | 26026 ft | 301 kts | 253° |
| 2026-05-06 17:05 | 59.78188 | 8.15499 | 25622 ft | 299 kts | 253° |
| 2026-05-06 17:05 | 59.77607 | 8.11535 | 25201 ft | 298 kts | 253° |
| 2026-05-06 17:06 | 59.77029 | 8.07597 | 24793 ft | 296 kts | 253° |
| 2026-05-06 17:06 | 59.76451 | 8.03672 | 24385 ft | 295 kts | 253° |
| 2026-05-06 17:06 | 59.75763 | 7.99850 | 24014 ft | 293 kts | 249° |
| 2026-05-06 17:06 | 59.75018 | 7.96155 | 23907 ft | 288 kts | 250° |
| 2026-05-06 17:07 | 59.74276 | 7.92423 | 23760 ft | 293 kts | 250° |
| 2026-05-06 17:07 | 59.73533 | 7.88664 | 23578 ft | 292 kts | 250° |
| 2026-05-06 17:07 | 59.72797 | 7.84929 | 23120 ft | 292 kts | 250° |
| 2026-05-06 17:07 | 59.72057 | 7.81177 | 22627 ft | 291 kts | 250° |
| 2026-05-06 17:08 | 59.71333 | 7.77513 | 22300 ft | 287 kts | 250° |
| 2026-05-06 17:08 | 59.70598 | 7.73796 | 21941 ft | 285 kts | 250° |
| 2026-05-06 17:08 | 59.69889 | 7.70218 | 21618 ft | 280 kts | 250° |
| 2026-05-06 17:08 | 59.69181 | 7.66651 | 21274 ft | 277 kts | 250° |
| 2026-05-06 17:09 | 59.68482 | 7.63132 | 20959 ft | 273 kts | 250° |
| 2026-05-06 17:09 | 59.67789 | 7.59653 | 20645 ft | 270 kts | 250° |
| 2026-05-06 17:09 | 59.67102 | 7.56203 | 20333 ft | 272 kts | 250° |
| 2026-05-06 17:09 | 59.66397 | 7.52679 | 19970 ft | 278 kts | 250° |
| 2026-05-06 17:10 | 59.65680 | 7.49092 | 19671 ft | 283 kts | 250° |
| 2026-05-06 17:10 | 59.64951 | 7.45459 | 19361 ft | 285 kts | 250° |
| 2026-05-06 17:10 | 59.64221 | 7.41822 | 19049 ft | 284 kts | 250° |
| 2026-05-06 17:10 | 59.63493 | 7.38204 | 18731 ft | 284 kts | 250° |
| 2026-05-06 17:11 | 59.62766 | 7.34601 | 18411 ft | 281 kts | 250° |
| 2026-05-06 17:11 | 59.62046 | 7.31032 | 18090 ft | 278 kts | 250° |
| 2026-05-06 17:11 | 59.61333 | 7.27509 | 17756 ft | 274 kts | 250° |
| 2026-05-06 17:11 | 59.60631 | 7.24043 | 17447 ft | 270 kts | 250° |
| 2026-05-06 17:12 | 59.59936 | 7.20619 | 17151 ft | 268 kts | 250° |
| 2026-05-06 17:12 | 59.59238 | 7.17188 | 16863 ft | 272 kts | 250° |
| 2026-05-06 17:12 | 59.58526 | 7.13689 | 16556 ft | 276 kts | 250° |
| 2026-05-06 17:12 | 59.57807 | 7.10167 | 16261 ft | 277 kts | 250° |
| 2026-05-06 17:13 | 59.57085 | 7.06637 | 15969 ft | 277 kts | 250° |
| 2026-05-06 17:13 | 59.56365 | 7.03121 | 15670 ft | 276 kts | 250° |
| 2026-05-06 17:13 | 59.55645 | 6.99609 | 15369 ft | 276 kts | 250° |
| 2026-05-06 17:13 | 59.54925 | 6.96106 | 15067 ft | 275 kts | 250° |
| 2026-05-06 17:14 | 59.54208 | 6.92623 | 14772 ft | 275 kts | 250° |
| 2026-05-06 17:14 | 59.53497 | 6.89176 | 14493 ft | 275 kts | 250° |
| 2026-05-06 17:14 | 59.52777 | 6.85689 | 14163 ft | 275 kts | 250° |
| 2026-05-06 17:14 | 59.52057 | 6.82210 | 13900 ft | 274 kts | 250° |
| 2026-05-06 17:15 | 59.51336 | 6.78728 | 13553 ft | 274 kts | 250° |
| 2026-05-06 17:15 | 59.50615 | 6.75256 | 13249 ft | 274 kts | 250° |
| 2026-05-06 17:15 | 59.49891 | 6.71776 | 12933 ft | 274 kts | 250° |
| 2026-05-06 17:15 | 59.49168 | 6.68301 | 12625 ft | 274 kts | 250° |
| 2026-05-06 17:16 | 59.48445 | 6.64834 | 12323 ft | 274 kts | 250° |
| 2026-05-06 17:16 | 59.47721 | 6.61372 | 12033 ft | 273 kts | 250° |
| 2026-05-06 17:16 | 59.46997 | 6.57918 | 11751 ft | 273 kts | 250° |
| 2026-05-06 17:16 | 59.46274 | 6.54467 | 11455 ft | 273 kts | 250° |
| 2026-05-06 17:17 | 59.45548 | 6.51010 | 11164 ft | 274 kts | 250° |
| 2026-05-06 17:17 | 59.44822 | 6.47560 | 10871 ft | 274 kts | 251° |
| 2026-05-06 17:17 | 59.44093 | 6.44098 | 10560 ft | 275 kts | 251° |
| 2026-05-06 17:17 | 59.43360 | 6.40631 | 10313 ft | 274 kts | 250° |
| 2026-05-06 17:18 | 59.42640 | 6.37227 | 10186 ft | 265 kts | 251° |
| 2026-05-06 17:18 | 59.41942 | 6.33934 | 10065 ft | 256 kts | 251° |
| 2026-05-06 17:18 | 59.41265 | 6.30740 | 9823 ft | 252 kts | 251° |
| 2026-05-06 17:18 | 59.40590 | 6.27565 | 9493 ft | 251 kts | 251° |
| 2026-05-06 17:19 | 59.39930 | 6.24463 | 9194 ft | 248 kts | 251° |
| 2026-05-06 17:19 | 59.39266 | 6.21347 | 8923 ft | 248 kts | 250° |
| 2026-05-06 17:19 | 59.38588 | 6.18175 | 8670 ft | 255 kts | 250° |
| 2026-05-06 17:19 | 59.37897 | 6.14941 | 8371 ft | 258 kts | 250° |
| 2026-05-06 17:20 | 59.37200 | 6.11688 | 8102 ft | 259 kts | 250° |
| 2026-05-06 17:20 | 59.36501 | 6.08425 | 7804 ft | 260 kts | 250° |
| 2026-05-06 17:20 | 59.35803 | 6.05179 | 7510 ft | 256 kts | 250° |
| 2026-05-06 17:20 | 59.35116 | 6.01985 | 7281 ft | 254 kts | 250° |
| 2026-05-06 17:21 | 59.34431 | 5.98801 | 6978 ft | 253 kts | 250° |
| 2026-05-06 17:21 | 59.33749 | 5.95639 | 6697 ft | 251 kts | 250° |
| 2026-05-06 17:21 | 59.33072 | 5.92509 | 6433 ft | 249 kts | 250° |
| 2026-05-06 17:21 | 59.32399 | 5.89401 | 6152 ft | 247 kts | 250° |
| 2026-05-06 17:22 | 59.31732 | 5.86325 | 5869 ft | 244 kts | 250° |
| 2026-05-06 17:22 | 59.31071 | 5.83280 | 5594 ft | 242 kts | 250° |
| 2026-05-06 17:22 | 59.30422 | 5.80298 | 5340 ft | 241 kts | 250° |
| 2026-05-06 17:22 | 59.29757 | 5.77239 | 5088 ft | 247 kts | 249° |
| 2026-05-06 17:23 | 59.29076 | 5.74117 | 4820 ft | 251 kts | 250° |
| 2026-05-06 17:23 | 59.28391 | 5.70978 | 4530 ft | 251 kts | 250° |
| 2026-05-06 17:23 | 59.27703 | 5.67833 | 4249 ft | 251 kts | 250° |
| 2026-05-06 17:23 | 59.27022 | 5.64723 | 4092 ft | 245 kts | 250° |
| 2026-05-06 17:24 | 59.26354 | 5.61747 | 4035 ft | 234 kts | 245° |
| 2026-05-06 17:24 | 59.25353 | 5.59310 | 3957 ft | 227 kts | 228° |
| 2026-05-06 17:24 | 59.24262 | 5.57168 | 3796 ft | 220 kts | 228° |
| 2026-05-06 17:24 | 59.23193 | 5.55080 | 3634 ft | 214 kts | 228° |
| 2026-05-06 17:25 | 59.22149 | 5.53056 | 3475 ft | 208 kts | 229° |
| 2026-05-06 17:25 | 59.21429 | 5.50757 | 3289 ft | 193 kts | 262° |
| 2026-05-06 17:25 | 59.21500 | 5.48248 | 3140 ft | 184 kts | 294° |
| 2026-05-06 17:25 | 59.22160 | 5.46154 | 3027 ft | 182 kts | 312° |
| 2026-05-06 17:26 | 59.22994 | 5.44280 | 2862 ft | 183 kts | 314° |
| 2026-05-06 17:26 | 59.23849 | 5.42441 | 2724 ft | 183 kts | 314° |
| 2026-05-06 17:26 | 59.24707 | 5.40646 | 2630 ft | 174 kts | 315° |
| 2026-05-06 17:26 | 59.25515 | 5.38981 | 2464 ft | 168 kts | 315° |
| 2026-05-06 17:27 | 59.26327 | 5.37308 | 2122 ft | 171 kts | 314° |
| 2026-05-06 17:27 | 59.27134 | 5.35633 | 1873 ft | 165 kts | 315° |
| 2026-05-06 17:27 | 59.27913 | 5.34132 | 1695 ft | 148 kts | 316° |
| 2026-05-06 17:27 | 59.28628 | 5.32737 | 1452 ft | 143 kts | 315° |
| 2026-05-06 17:28 | 59.29309 | 5.31356 | 1312 ft | 140 kts | 314° |
| 2026-05-06 17:28 | 59.29962 | 5.29988 | 1163 ft | 140 kts | 315° |
| 2026-05-06 17:28 | 59.30658 | 5.28657 | 992 ft | 139 kts | 316° |
| 2026-05-06 17:28 | 59.31326 | 5.27332 | 751 ft | 135 kts | 313° |
| 2026-05-06 17:29 | 59.31975 | 5.25967 | 640 ft | 140 kts | 313° |
| 2026-05-06 17:29 | 59.32659 | 5.24579 | 469 ft | 141 kts | 315° |
| 2026-05-06 17:29 | 59.33344 | 5.23219 | 249 ft | 138 kts | 314° |
| 2026-05-06 17:29 | 59.33996 | 5.21901 | 90 ft | 128 kts | 314° |
| 2026-05-06 17:30 | 59.34447 | 5.20998 | 90 ft | 59 kts | 314° |
| 2026-05-06 17:30 | 59.34670 | 5.20551 | 88 ft | 23 kts | 314° |
| 2026-05-06 17:30 | 59.34751 | 5.20402 | 89 ft | 14 kts | 328° |
| 2026-05-06 17:30 | 59.34800 | 5.20320 | 90 ft | 3 kts | 269° |
| 2026-05-06 17:31 | 59.34795 | 5.20314 | 89 ft | 1 kts | 205° |
| 2026-05-06 17:31 | 59.34780 | 5.20331 | 90 ft | 6 kts | 135° |
| 2026-05-06 17:31 | 59.34715 | 5.20460 | 90 ft | 20 kts | 134° |
| 2026-05-06 17:31 | 59.34587 | 5.20717 | 90 ft | 29 kts | 134° |
| 2026-05-06 17:32 | 59.34436 | 5.21019 | 88 ft | 32 kts | 134° |
| 2026-05-06 17:32 | 59.34311 | 5.21271 | 90 ft | 20 kts | 134° |
| 2026-05-06 17:32 | 59.34255 | 5.21436 | 88 ft | 9 kts | 81° |
| 2026-05-06 17:32 | 59.34301 | 5.21543 | 90 ft | 11 kts | 44° |
| 2026-05-06 17:33 | 59.34351 | 5.21598 | 90 ft | 6 kts | 17° |
| 2026-05-06 17:33 | 59.34383 | 5.21643 | 89 ft | 3 kts | 43° |
| 2026-05-06 17:33 | 59.34391 | 5.21659 | 93 ft | 0 kts | 44° |